Time;durP1;ratioP1;P1;durP2;ratioP2;P2;SDS_P1;SDS_P2;PMS_P1;PMS_P2;Temp;Humidity;BMP_temperature;BMP_pressure;BME280_temperature;BME280_humidity;BME280_pressure;Samples;Min_cycle;Max_cycle;Signal;HPM_P1;HPM_P2
2022/11/08 00:01:30;;;;;;;58.30;52.10;;;;;;;2.94;96.31;98131.85;103422;1309;22495;-85
2022/11/08 00:03:10;;;;;;;45.00;40.70;;;;;;;2.90;96.95;98137.44;103303;1294;24042;-85
2022/11/08 00:13:58;;;;;;;44.00;39.80;;;;;;;2.99;97.07;98136.39;103303;1309;22665;-83
2022/11/08 00:16:28;;;;;;;38.20;34.70;;;;;;;2.95;97.47;98135.23;103300;1312;22464;-84
2022/11/08 00:18:56;;;;;;;38.70;35.20;;;;;;;2.90;97.13;98137.28;103327;1312;22608;-85
2022/11/08 00:21:24;;;;;;;36.20;32.80;;;;;;;2.87;97.80;98139.15;103188;1310;25676;-84
2022/11/08 00:23:53;;;;;;;33.70;30.40;;;;;;;2.87;98.70;98139.41;103300;1303;26486;-84
2022/11/08 00:26:21;;;;;;;30.00;26.90;;;;;;;2.91;98.43;98138.46;103286;1310;22506;-84
2022/11/08 00:28:49;;;;;;;29.10;26.10;;;;;;;2.92;98.79;98137.73;103182;1306;23386;-84
2022/11/08 00:31:17;;;;;;;35.60;32.20;;;;;;;2.93;98.14;98137.44;103301;1307;25435;-85
2022/11/08 00:33:45;;;;;;;37.10;33.50;;;;;;;2.94;97.77;98133.66;103316;1304;22500;-84
2022/11/08 00:36:13;;;;;;;32.20;29.20;;;;;;;2.96;97.75;98131.45;103083;1309;24284;-84
2022/11/08 00:38:43;;;;;;;35.30;29.90;;;;;;;2.99;97.62;98129.67;103356;1309;24324;-85
2022/11/08 00:41:11;;;;;;;32.10;29.00;;;;;;;3.00;97.05;98132.20;103305;1313;24034;-85
2022/11/08 00:43:39;;;;;;;30.30;27.20;;;;;;;2.95;97.14;98133.46;103082;1306;22496;-84
2022/11/08 00:46:07;;;;;;;29.20;26.20;;;;;;;2.95;98.66;98136.23;103279;1310;22495;-84
2022/11/08 00:48:35;;;;;;;28.50;25.80;;;;;;;2.98;99.36;98138.20;103312;1304;22740;-84
2022/11/08 00:51:06;;;;;;;28.40;25.60;;;;;;;3.02;99.47;98133.99;103278;1312;22528;-83
2022/11/08 00:53:36;;;;;;;27.20;24.50;;;;;;;3.09;98.83;98136.38;103208;1306;22516;-84
2022/11/08 00:56:06;;;;;;;25.50;22.90;;;;;;;3.11;99.15;98138.05;103387;1287;25294;-84
2022/11/08 00:58:34;;;;;;;26.30;23.70;;;;;;;3.05;99.11;98142.94;103436;1309;23891;-84
2022/11/08 01:01:14;;;;;;;61.30;56.20;;;;;;;3.04;98.69;98144.30;103347;1309;22619;-84
2022/11/08 01:03:43;;;;;;;27.70;25.00;;;;;;;3.04;98.60;98143.56;103378;1309;22501;-84
2022/11/08 01:06:14;;;;;;;38.30;34.90;;;;;;;3.06;98.44;98145.18;103142;1310;22511;-85
2022/11/08 01:08:43;;;;;;;36.50;33.30;;;;;;;3.01;98.41;98137.55;103535;1312;24807;-86
2022/11/08 01:11:14;;;;;;;26.70;23.80;;;;;;;2.92;98.78;98138.00;103531;1309;22473;-85
2022/11/08 01:13:43;;;;;;;27.20;24.70;;;;;;;2.93;98.22;98137.92;103154;1315;24298;-84
2022/11/08 01:16:15;;;;;;;24.50;22.00;;;;;;;2.97;98.56;98137.80;103222;1310;22568;-84
2022/11/08 01:18:44;;;;;;;23.60;21.40;;;;;;;3.04;98.64;98140.41;103511;1291;25359;-85
2022/11/08 01:21:14;;;;;;;40.10;36.40;;;;;;;3.03;98.93;98136.14;105975;1304;23409;-84
2022/11/08 01:23:42;;;;;;;36.00;32.90;;;;;;;2.98;99.02;98133.02;106323;1309;22483;-84
2022/11/08 01:26:13;;;;;;;56.60;51.70;;;;;;;2.97;99.47;98135.83;105319;1309;24241;-84
2022/11/08 01:28:43;;;;;;;28.50;25.90;;;;;;;2.96;99.67;98136.30;103609;1310;22505;-84
2022/11/08 01:31:13;;;;;;;24.20;21.90;;;;;;;2.99;99.44;98134.21;103530;1309;22604;-84
2022/11/08 01:33:42;;;;;;;23.30;21.00;;;;;;;2.99;99.89;98135.55;103637;1305;22597;-86
2022/11/08 01:36:23;;;;;;;20.20;18.20;;;;;;;2.97;99.90;98131.95;103399;1313;22592;-86
2022/11/08 01:38:52;;;;;;;25.50;23.30;;;;;;;2.95;99.94;98133.20;103309;1310;22876;-86
2022/11/08 01:41:22;;;;;;;23.80;21.60;;;;;;;2.94;100.00;98133.67;103304;1310;22592;-84
2022/11/08 01:43:51;;;;;;;22.90;20.40;;;;;;;2.90;99.94;98136.37;103396;1312;23314;-83
2022/11/08 01:46:43;;;;;;;22.60;20.30;;;;;;;2.85;99.97;98130.97;103338;1309;22540;-84
2022/11/08 01:49:33;;;;;;;21.60;19.40;;;;;;;2.88;99.94;98132.45;103385;1309;25437;-84
2022/11/08 01:52:13;;;;;;;20.80;18.90;;;;;;;2.92;99.39;98129.01;103355;1309;22556;-83
2022/11/08 01:55:29;;;;;;;20.00;18.20;;;;;;;2.83;99.89;98128.96;103318;1313;22499;-84
2022/11/08 01:58:06;;;;;;;23.30;21.20;;;;;;;2.78;99.79;98125.82;103203;1314;25247;-84
2022/11/08 02:00:36;;;;;;;21.90;19.80;;;;;;;2.73;99.84;98129.73;103336;1303;22490;-84
2022/11/08 02:03:09;;;;;;;19.80;17.80;;;;;;;2.74;99.47;98125.54;103232;1309;25223;-85
2022/11/08 02:05:38;;;;;;;19.00;16.60;;;;;;;2.76;99.82;98122.06;102868;1310;25245;-84
2022/11/08 02:08:23;;;;;;;20.80;18.70;;;;;;;2.81;99.74;98126.75;103348;1297;22478;-85
2022/11/08 02:10:52;;;;;;;22.70;20.50;;;;;;;2.81;99.86;98127.50;103372;1309;25277;-85
2022/11/08 02:13:23;;;;;;;23.00;20.80;;;;;;;2.78;100.00;98124.59;103312;1310;22533;-85
2022/11/08 02:15:51;;;;;;;55.80;50.90;;;;;;;2.74;100.00;98121.48;103404;1310;22506;-84
2022/11/08 02:18:21;;;;;;;34.60;31.50;;;;;;;2.72;99.87;98117.85;103060;1315;22531;-84
2022/11/08 02:21:02;;;;;;;20.50;18.50;;;;;;;2.71;99.97;98118.04;103403;1309;22595;-84
2022/11/08 02:23:42;;;;;;;18.90;17.20;;;;;;;2.65;100.00;98116.52;103290;1309;22477;-83
2022/11/08 02:26:10;;;;;;;18.60;16.90;;;;;;;2.69;100.00;98111.67;103367;1314;24273;-86
2022/11/08 02:28:45;;;;;;;22.80;20.70;;;;;;;2.69;100.00;98114.07;103405;1304;22482;-86
2022/11/08 02:31:15;;;;;;;20.90;18.90;;;;;;;2.68;100.00;98115.08;103293;1291;24249;-83
2022/11/08 02:33:44;;;;;;;31.30;28.20;;;;;;;2.68;100.00;98112.45;103075;1314;22487;-83
2022/11/08 02:36:21;;;;;;;28.30;25.70;;;;;;;2.65;100.00;98114.48;103407;1309;22694;-84
2022/11/08 02:38:53;;;;;;;30.40;27.40;;;;;;;2.70;100.00;98111.31;103236;1312;25351;-83
2022/11/08 02:41:21;;;;;;;20.20;18.30;;;;;;;2.67;100.00;98109.80;103336;1309;24288;-83
2022/11/08 02:43:49;;;;;;;21.90;20.00;;;;;;;2.61;100.00;98110.17;103290;1311;22476;-83
2022/11/08 02:46:17;;;;;;;19.30;17.50;;;;;;;2.63;99.98;98111.41;103024;1312;26696;-83
2022/11/08 02:48:45;;;;;;;17.80;16.10;;;;;;;2.61;100.00;98113.13;103035;1313;24244;-85
2022/11/08 02:51:13;;;;;;;33.10;30.00;;;;;;;2.58;100.00;98113.13;103359;1309;22571;-83
2022/11/08 02:53:41;;;;;;;21.60;19.60;;;;;;;2.55;100.00;98113.16;103172;1313;25353;-84
2022/11/08 02:56:10;;;;;;;22.50;20.30;;;;;;;2.50;100.00;98112.07;103154;1310;24328;-83
2022/11/08 02:58:38;;;;;;;17.10;15.30;;;;;;;2.53;100.00;98112.22;103347;1302;22948;-84
2022/11/08 03:01:06;;;;;;;17.00;15.40;;;;;;;2.51;100.00;98112.14;103353;1309;22610;-83
2022/11/08 03:03:34;;;;;;;17.40;15.80;;;;;;;2.54;100.00;98108.40;103038;1310;24380;-84
2022/11/08 03:06:02;;;;;;;18.70;16.90;;;;;;;2.57;100.00;98108.77;103268;1312;22635;-83
2022/11/08 03:08:30;;;;;;;23.80;21.50;;;;;;;2.58;100.00;98108.66;103335;1309;22707;-83
2022/11/08 03:10:59;;;;;;;24.40;22.20;;;;;;;2.53;100.00;98106.86;103274;1310;22610;-84
2022/11/08 03:13:27;;;;;;;20.70;18.70;;;;;;;2.50;100.00;98106.10;103355;1310;24227;-84
2022/11/08 03:15:55;;;;;;;18.20;16.40;;;;;;;2.45;100.00;98107.90;103380;1308;23175;-84
2022/11/08 03:18:23;;;;;;;18.70;16.90;;;;;;;2.47;100.00;98106.99;103406;1302;25439;-84
2022/11/08 03:20:51;;;;;;;18.30;16.30;;;;;;;2.48;100.00;98111.29;103267;1312;22635;-84
2022/11/08 03:23:19;;;;;;;17.70;16.00;;;;;;;2.45;100.00;98103.24;103350;1309;26719;-85
2022/11/08 03:25:47;;;;;;;18.80;17.00;;;;;;;2.50;100.00;98108.33;103608;1298;22479;-83
2022/11/08 03:28:15;;;;;;;51.10;46.60;;;;;;;2.47;100.00;98109.08;103508;1310;23202;-84
2022/11/08 03:30:51;;;;;;;25.00;22.80;;;;;;;2.44;100.00;98111.16;103358;1310;22594;-85
2022/11/08 03:33:19;;;;;;;25.20;22.90;;;;;;;2.41;100.00;98112.17;103197;1311;22535;-85
2022/11/08 03:35:48;;;;;;;22.40;20.40;;;;;;;2.39;100.00;98108.42;102742;1306;25360;-84
2022/11/08 03:38:16;;;;;;;21.30;19.10;;;;;;;2.39;100.00;98105.72;103263;1309;24324;-83
2022/11/08 03:40:45;;;;;;;20.30;18.40;;;;;;;2.42;100.00;98102.09;103197;1312;22675;-83
2022/11/08 03:43:14;;;;;;;19.50;17.70;;;;;;;2.44;100.00;98108.33;103228;1309;22980;-83
2022/11/08 03:45:42;;;;;;;19.40;17.50;;;;;;;2.47;100.00;98109.24;103281;1313;24308;-83
2022/11/08 03:48:09;;;;;;;19.20;17.30;;;;;;;2.53;100.00;98112.10;103259;1313;22523;-82
2022/11/08 03:50:37;;;;;;;21.20;19.20;;;;;;;2.57;100.00;98114.14;103282;1310;25605;-83
2022/11/08 03:53:05;;;;;;;24.70;22.50;;;;;;;2.62;100.00;98112.30;103155;1312;22872;-83
2022/11/08 03:55:33;;;;;;;22.60;20.60;;;;;;;2.70;100.00;98119.50;103279;1312;22735;-83
2022/11/08 03:58:01;;;;;;;18.60;16.80;;;;;;;2.75;100.00;98119.48;103282;1313;24401;-82
2022/11/08 04:00:29;;;;;;;20.50;18.40;;;;;;;2.73;100.00;98121.32;103360;1297;22530;-81
2022/11/08 04:03:02;;;;;;;39.20;35.60;;;;;;;2.68;100.00;98118.84;103236;1312;22492;-83
2022/11/08 04:05:31;;;;;;;29.60;27.10;;;;;;;2.63;100.00;98120.41;103327;1297;22770;-83
2022/11/08 04:08:01;;;;;;;22.90;20.80;;;;;;;2.59;100.00;98120.66;103230;1309;22703;-84
2022/11/08 04:10:28;;;;;;;21.00;19.00;;;;;;;2.57;100.00;98121.21;103135;1314;22571;-84
2022/11/08 04:15:53;;;;;;;23.30;20.80;;;;;;;2.56;100.00;98119.59;103304;1310;22494;-84
2022/11/08 04:21:18;;;;;;;23.20;21.20;;;;;;;2.49;100.00;98115.45;103339;1310;22681;-84
2022/11/08 04:23:51;;;;;;;26.40;23.80;;;;;;;2.48;100.00;98114.33;103300;1309;22621;-84
2022/11/08 04:26:20;;;;;;;23.40;21.10;;;;;;;2.53;100.00;98111.41;103311;1310;24323;-84
2022/11/08 04:28:48;;;;;;;21.00;19.00;;;;;;;2.55;100.00;98109.79;103082;1313;22482;-84
2022/11/08 04:31:18;;;;;;;24.10;21.80;;;;;;;2.56;100.00;98106.83;103152;1303;22617;-85
2022/11/08 04:33:46;;;;;;;19.80;17.90;;;;;;;2.56;100.00;98108.59;103515;1312;22707;-83
2022/11/08 04:36:15;;;;;;;24.50;22.40;;;;;;;2.57;100.00;98102.22;103543;1312;22481;-83
2022/11/08 04:38:47;;;;;;;52.30;47.20;;;;;;;2.58;100.00;98104.69;103436;1311;23110;-85
2022/11/08 04:41:20;;;;;;;56.90;51.80;;;;;;;2.56;100.00;98097.58;103567;1308;22623;-85
2022/11/08 04:43:49;;;;;;;68.40;61.40;;;;;;;2.55;100.00;98093.67;104237;1311;22491;-85
2022/11/08 04:46:20;;;;;;;34.70;31.40;;;;;;;2.55;100.00;98090.73;103312;1312;22494;-84
2022/11/08 04:48:56;;;;;;;24.10;21.60;;;;;;;2.54;100.00;98094.55;103457;1310;25277;-85
2022/11/08 04:51:28;;;;;;;20.90;18.90;;;;;;;2.57;100.00;98094.45;103339;1304;25444;-83
2022/11/08 04:53:59;;;;;;;25.10;22.60;;;;;;;2.59;100.00;98098.19;103416;1309;22545;-83
2022/11/08 04:56:29;;;;;;;26.00;23.30;;;;;;;2.62;100.00;98095.42;103106;1310;25341;-84
2022/11/08 04:58:59;;;;;;;18.80;17.00;;;;;;;2.63;100.00;98093.02;103352;1310;25570;-83
2022/11/08 05:01:29;;;;;;;17.00;15.40;;;;;;;2.65;100.00;98094.37;103142;1314;22494;-82
2022/11/08 05:03:58;;;;;;;18.00;16.20;;;;;;;2.70;100.00;98092.00;103275;1313;22546;-84
2022/11/08 05:06:29;;;;;;;19.40;16.30;;;;;;;2.73;100.00;98090.88;103218;1310;23929;-84
2022/11/08 05:08:58;;;;;;;60.80;55.40;;;;;;;2.72;100.00;98091.92;103125;1314;22629;-84
2022/11/08 05:11:28;;;;;;;23.40;20.90;;;;;;;2.67;100.00;98091.26;103246;1313;22926;-83
2022/11/08 05:13:57;;;;;;;24.20;21.90;;;;;;;2.66;100.00;98090.67;103063;1314;24074;-83
2022/11/08 05:16:27;;;;;;;23.20;21.30;;;;;;;2.70;100.00;98085.88;103211;1312;22490;-83
2022/11/08 05:18:55;;;;;;;19.90;17.80;;;;;;;2.74;100.00;98083.13;103306;1313;22625;-83
2022/11/08 05:24:13;;;;;;;17.90;16.10;;;;;;;2.67;100.00;98090.04;103310;1301;22611;-82
2022/11/08 05:26:44;;;;;;;25.70;22.90;;;;;;;2.65;100.00;98089.00;103120;1313;22550;-84
2022/11/08 05:29:14;;;;;;;20.20;18.20;;;;;;;2.67;100.00;98093.08;103485;1310;22738;-83
2022/11/08 05:31:42;;;;;;;19.50;17.60;;;;;;;2.67;100.00;98090.95;103241;1313;25317;-84
2022/11/08 05:34:10;;;;;;;25.60;20.60;;;;;;;2.56;100.00;98097.62;103231;1312;22606;-84
2022/11/08 05:36:38;;;;;;;24.10;21.70;;;;;;;2.48;100.00;98094.73;103429;1310;22692;-85
2022/11/08 05:39:06;;;;;;;34.30;28.60;;;;;;;2.47;100.00;98098.33;103501;1310;23535;-84
2022/11/08 05:41:34;;;;;;;34.60;28.60;;;;;;;2.44;100.00;98096.59;103252;1313;24291;-84
2022/11/08 05:44:02;;;;;;;26.10;22.10;;;;;;;2.47;100.00;98094.63;103203;1310;24061;-85
2022/11/08 05:46:30;;;;;;;34.00;25.90;;;;;;;2.57;100.00;98098.83;103263;1313;24263;-86
2022/11/08 05:48:58;;;;;;;44.30;34.10;;;;;;;2.67;100.00;98102.80;103259;1312;24443;-86
2022/11/08 05:51:26;;;;;;;49.70;30.40;;;;;;;2.72;100.00;98107.78;103974;1294;22493;-87
2022/11/08 05:53:54;;;;;;;69.40;41.50;;;;;;;2.70;100.00;98106.59;104042;1313;24250;-84
2022/11/08 05:56:22;;;;;;;50.90;37.40;;;;;;;2.71;100.00;98107.39;103846;1310;22597;-84
2022/11/08 05:58:50;;;;;;;57.80;33.30;;;;;;;2.79;100.00;98109.85;103484;1310;22566;-83
2022/11/08 06:01:19;;;;;;;83.30;43.20;;;;;;;2.86;100.00;98104.09;103284;1303;22577;-84
2022/11/08 06:03:47;;;;;;;97.10;53.50;;;;;;;2.91;100.00;98104.89;103268;1306;22604;-83
2022/11/08 06:06:18;;;;;;;94.50;54.90;;;;;;;2.92;100.00;98106.80;103316;1310;25290;-83
2022/11/08 06:08:47;;;;;;;60.10;45.50;;;;;;;2.92;100.00;98105.73;103357;1310;25311;-84
2022/11/08 06:11:21;;;;;;;51.30;36.70;;;;;;;2.88;100.00;98112.91;103272;1309;22475;-83
2022/11/08 06:13:50;;;;;;;44.90;31.30;;;;;;;2.81;100.00;98112.29;103308;1310;22523;-84
2022/11/08 06:16:20;;;;;;;39.80;28.50;;;;;;;2.82;100.00;98115.59;103308;1311;24043;-84
2022/11/08 06:18:48;;;;;;;38.00;26.90;;;;;;;2.91;100.00;98117.54;103221;1306;22482;-84
2022/11/08 06:21:18;;;;;;;78.00;70.40;;;;;;;3.00;100.00;98114.85;103212;1310;23406;-84
2022/11/08 06:23:47;;;;;;;52.20;44.10;;;;;;;3.15;100.00;98116.92;103290;1311;22483;-82
2022/11/08 06:26:15;;;;;;;50.20;43.80;;;;;;;3.33;100.00;98122.77;103341;1301;23829;-81
2022/11/08 06:28:43;;;;;;;30.00;26.80;;;;;;;3.50;100.00;98126.24;103389;1294;22965;-83
2022/11/08 06:31:11;;;;;;;25.50;21.40;;;;;;;3.66;100.00;98129.16;103088;1313;25390;-82
2022/11/08 06:33:38;;;;;;;32.70;28.40;;;;;;;3.77;100.00;98128.97;103245;1310;23820;-83
2022/11/08 06:36:07;;;;;;;31.40;28.10;;;;;;;3.88;100.00;98127.80;103381;1311;22533;-84
2022/11/08 06:38:35;;;;;;;26.40;23.30;;;;;;;3.94;100.00;98125.27;103207;1314;22511;-83
2022/11/08 06:41:03;;;;;;;29.00;25.80;;;;;;;4.07;100.00;98128.83;103240;1310;22479;-83
2022/11/08 06:43:31;;;;;;;34.40;29.60;;;;;;;4.25;100.00;98126.70;103255;1309;24221;-84
2022/11/08 06:46:01;;;;;;;37.90;33.20;;;;;;;4.34;100.00;98130.48;103351;1310;22688;-86
2022/11/08 06:48:29;;;;;;;39.40;35.10;;;;;;;4.50;100.00;98132.34;103470;1311;22601;-85
2022/11/08 06:51:03;;;;;;;37.10;33.50;;;;;;;4.58;100.00;98130.86;103306;1310;22518;-85
2022/11/08 06:53:32;;;;;;;37.50;33.50;;;;;;;4.64;100.00;98134.73;103196;1310;24279;-84
2022/11/08 06:56:01;;;;;;;58.60;53.00;;;;;;;4.77;100.00;98134.70;103252;1294;22487;-83
2022/11/08 06:58:29;;;;;;;34.10;30.70;;;;;;;4.91;100.00;98131.64;103263;1309;23186;-84
2022/11/08 07:01:01;;;;;;;25.60;23.20;;;;;;;5.06;100.00;98130.54;103255;1307;24086;-85
2022/11/08 07:03:29;;;;;;;23.80;20.70;;;;;;;5.23;100.00;98132.41;103362;1288;24866;-84
2022/11/08 07:06:01;;;;;;;25.50;21.40;;;;;;;5.42;100.00;98131.39;103344;1296;22481;-83
2022/11/08 07:08:30;;;;;;;34.30;30.80;;;;;;;5.65;100.00;98130.98;103446;1310;25379;-84
2022/11/08 07:10:58;;;;;;;31.20;27.80;;;;;;;5.85;100.00;98133.30;103285;1310;22596;-85
2022/11/08 07:13:26;;;;;;;48.80;43.80;;;;;;;6.02;100.00;98128.73;103686;1309;24733;-83
2022/11/08 07:15:58;;;;;;;36.10;32.40;;;;;;;6.15;100.00;98127.35;103992;1309;22428;-83
2022/11/08 07:18:28;;;;;;;45.80;40.80;;;;;;;6.29;100.00;98127.44;103939;1304;22881;-84
2022/11/08 07:21:00;;;;;;;30.40;27.20;;;;;;;6.45;100.00;98127.52;103535;1293;24253;-83
2022/11/08 07:23:28;;;;;;;31.40;26.70;;;;;;;6.61;100.00;98124.75;103398;1294;25273;-84
2022/11/08 07:26:00;;;;;;;25.90;23.30;;;;;;;6.77;100.00;98127.71;103227;1309;22541;-83
2022/11/08 07:28:29;;;;;;;23.80;21.30;;;;;;;6.91;100.00;98126.52;103232;1310;24224;-83
2022/11/08 07:31:00;;;;;;;20.40;15.80;;;;;;;7.06;100.00;98126.34;103315;1295;25305;-82
2022/11/08 07:33:28;;;;;;;16.80;15.20;;;;;;;7.20;100.00;98125.36;103259;1310;24268;-84
2022/11/08 07:35:56;;;;;;;15.10;13.60;;;;;;;7.34;100.00;98124.10;103162;1309;22538;-86
2022/11/08 07:38:25;;;;;;;16.70;12.80;;;;;;;7.48;100.00;98125.52;103178;1309;23892;-86
2022/11/08 07:40:55;;;;;;;13.00;10.60;;;;;;;7.63;100.00;98128.20;103130;1292;22586;-83
2022/11/08 07:43:25;;;;;;;13.00;11.10;;;;;;;7.79;100.00;98132.27;103344;1309;22495;-86
2022/11/08 07:45:58;;;;;;;11.30;9.80;;;;;;;7.93;100.00;98131.45;103327;1311;24244;-84
2022/11/08 07:48:28;;;;;;;11.20;9.90;;;;;;;8.04;100.00;98133.02;103468;1312;22494;-82
2022/11/08 07:50:56;;;;;;;13.30;10.60;;;;;;;8.13;100.00;98132.33;102981;1310;25285;-84
2022/11/08 07:53:24;;;;;;;15.20;10.60;;;;;;;8.21;100.00;98129.60;103158;1309;23891;-85
2022/11/08 07:55:53;;;;;;;12.10;10.00;;;;;;;8.31;100.00;98128.89;103236;1310;25557;-84
2022/11/08 07:58:22;;;;;;;12.50;11.20;;;;;;;8.41;100.00;98128.41;103088;1310;24392;-83
2022/11/08 08:00:50;;;;;;;14.70;10.20;;;;;;;8.55;100.00;98131.50;103125;1309;24462;-83
2022/11/08 08:03:18;;;;;;;13.70;10.20;;;;;;;8.67;100.00;98132.61;103205;1310;25380;-84
2022/11/08 08:05:52;;;;;;;12.00;10.60;;;;;;;8.76;100.00;98136.73;103266;1310;24446;-84
2022/11/08 08:08:28;;;;;;;11.50;10.30;;;;;;;8.86;100.00;98135.58;103344;1295;22554;-85
2022/11/08 08:11:00;;;;;;;17.60;10.70;;;;;;;8.95;100.00;98133.98;103284;1310;25287;-83
2022/11/08 08:13:29;;;;;;;10.80;9.70;;;;;;;9.07;100.00;98131.19;103371;1289;24331;-84
2022/11/08 08:16:01;;;;;;;10.90;9.10;;;;;;;9.19;100.00;98131.84;103133;1310;22565;-82
2022/11/08 08:18:29;;;;;;;11.10;9.90;;;;;;;9.30;100.00;98129.30;103251;1310;24240;-83
2022/11/08 08:20:58;;;;;;;12.80;9.60;;;;;;;9.40;100.00;98127.76;103291;1308;25304;-86
2022/11/08 08:23:26;;;;;;;12.10;10.60;;;;;;;9.48;100.00;98125.58;103373;1309;23530;-84
2022/11/08 08:25:54;;;;;;;12.20;10.90;;;;;;;9.57;100.00;98129.61;103217;1308;22720;-86
2022/11/08 08:28:22;;;;;;;13.00;10.80;;;;;;;9.65;100.00;98124.85;103328;1303;22536;-86
2022/11/08 08:30:50;;;;;;;11.90;10.50;;;;;;;9.74;100.00;98126.57;103406;1301;22538;-86
2022/11/08 08:33:18;;;;;;;10.60;8.90;;;;;;;9.84;100.00;98127.10;103233;1313;25382;-87
2022/11/08 08:35:55;;;;;;;9.40;8.20;;;;;;;9.92;100.00;98127.22;103108;1310;23045;-85
2022/11/08 08:38:23;;;;;;;11.50;9.30;;;;;;;9.98;100.00;98125.52;103225;1311;24527;-85
2022/11/08 08:40:51;;;;;;;9.40;8.40;;;;;;;10.06;100.00;98129.69;103187;1309;22726;-86
2022/11/08 08:43:20;;;;;;;15.30;8.60;;;;;;;10.12;100.00;98126.79;103044;1309;22475;-84
2022/11/08 08:45:49;;;;;;;15.80;8.00;;;;;;;10.21;100.00;98126.40;103001;1310;22594;-83
2022/11/08 08:48:17;;;;;;;10.00;7.70;;;;;;;10.31;100.00;98122.25;103216;1310;22854;-84
2022/11/08 08:50:46;;;;;;;10.60;7.70;;;;;;;10.40;100.00;98124.27;103164;1310;25368;-82
2022/11/08 08:53:13;;;;;;;15.00;8.60;;;;;;;10.50;100.00;98127.97;103241;1309;23187;-84
2022/11/08 08:55:42;;;;;;;13.40;10.60;;;;;;;10.57;100.00;98128.34;103428;1309;23225;-84
2022/11/08 08:58:10;;;;;;;14.90;10.50;;;;;;;10.65;100.00;98127.64;103168;1309;24446;-84
2022/11/08 09:00:39;;;;;;;10.80;9.30;;;;;;;10.72;100.00;98130.75;103246;1309;22655;-85
2022/11/08 09:03:27;;;;;;;8.70;7.70;;;;;;;10.81;100.00;98134.92;103250;1311;22475;-85
2022/11/08 09:05:57;;;;;;;13.10;8.20;;;;;;;10.90;100.00;98136.02;103388;1288;22536;-84
2022/11/08 09:08:26;;;;;;;9.20;8.00;;;;;;;10.98;100.00;98134.92;103381;1309;22527;-83
2022/11/08 09:10:56;;;;;;;11.10;9.00;;;;;;;11.04;100.00;98137.23;103228;1309;24285;-83
2022/11/08 09:13:26;;;;;;;12.10;9.90;;;;;;;11.12;100.00;98137.21;103351;1310;24282;-85
2022/11/08 09:15:54;;;;;;;10.70;8.50;;;;;;;11.20;100.00;98138.27;103297;1309;25309;-84
2022/11/08 09:18:22;;;;;;;11.00;8.60;;;;;;;11.27;100.00;98137.48;103187;1309;24035;-85
2022/11/08 09:20:50;;;;;;;14.70;8.90;;;;;;;11.35;100.00;98137.56;103275;1309;25255;-85
2022/11/08 09:23:18;;;;;;;11.40;8.90;;;;;;;11.45;100.00;98137.92;103389;1310;22598;-84
2022/11/08 09:25:46;;;;;;;9.30;8.30;;;;;;;11.56;100.00;98140.20;103099;1287;25761;-85
2022/11/08 09:28:14;;;;;;;10.20;9.10;;;;;;;11.66;99.97;98137.67;103693;1311;25367;-84
2022/11/08 09:30:42;;;;;;;9.80;8.70;;;;;;;11.77;99.96;98136.92;103366;1310;25388;-81
2022/11/08 09:33:10;;;;;;;12.10;8.60;;;;;;;11.86;99.00;98136.02;103517;1294;25262;-82
2022/11/08 09:35:39;;;;;;;11.70;8.50;;;;;;;11.89;97.18;98139.53;103378;1303;22917;-83
2022/11/08 09:38:07;;;;;;;8.70;7.00;;;;;;;11.95;96.66;98140.27;103417;1298;25451;-83
2022/11/08 09:40:41;;;;;;;12.10;8.40;;;;;;;12.00;96.33;98141.56;103344;1310;22642;-81
2022/11/08 09:43:30;;;;;;;8.70;7.30;;;;;;;12.02;94.36;98138.55;103225;1309;25241;-81
2022/11/08 09:45:58;;;;;;;9.80;7.00;;;;;;;12.07;94.37;98138.58;103295;1309;24280;-82
2022/11/08 09:48:41;;;;;;;10.30;7.10;;;;;;;12.13;95.13;98142.92;103419;1301;23180;-82
2022/11/08 09:51:15;;;;;;;12.40;7.00;;;;;;;12.23;95.24;98139.55;103288;1297;25636;-82
2022/11/08 09:53:51;;;;;;;9.10;7.20;;;;;;;12.35;92.86;98138.46;103266;1310;22517;-82
2022/11/08 09:56:34;;;;;;;10.40;6.60;;;;;;;12.46;92.43;98137.89;103874;1310;22557;-81
2022/11/08 09:59:07;;;;;;;12.00;6.40;;;;;;;12.54;92.42;98135.23;103838;1295;23339;-82
2022/11/08 10:01:37;;;;;;;9.00;6.10;;;;;;;12.62;91.61;98132.20;103280;1309;23095;-83
2022/11/08 10:04:11;;;;;;;9.70;7.10;;;;;;;12.70;89.20;98131.55;103173;1295;23807;-82
2022/11/08 10:06:57;;;;;;;9.10;6.00;;;;;;;12.77;89.43;98128.66;103363;1309;24054;-81
2022/11/08 10:10:06;;;;;;;8.90;6.40;;;;;;;12.86;90.35;98122.84;103221;1310;23260;-84
2022/11/08 10:12:46;;;;;;;10.00;7.20;;;;;;;12.98;91.20;98118.97;103404;1309;22491;-83
2022/11/08 10:15:19;;;;;;;7.60;6.30;;;;;;;13.06;86.53;98119.47;103423;1310;25581;-83
2022/11/08 10:18:06;;;;;;;10.60;8.10;;;;;;;13.08;84.15;98118.02;103513;1289;22488;-82
2022/11/08 10:20:37;;;;;;;8.30;6.50;;;;;;;13.12;86.29;98118.70;103620;1295;22609;-84
2022/11/08 10:23:11;;;;;;;11.30;8.50;;;;;;;13.18;83.93;98112.98;103528;1310;22534;-84
2022/11/08 10:25:45;;;;;;;12.90;9.30;;;;;;;13.22;82.26;98113.23;103580;1288;22659;-84
2022/11/08 10:28:29;;;;;;;9.70;6.20;;;;;;;13.29;83.80;98106.41;103635;1293;25393;-84
2022/11/08 10:30:58;;;;;;;15.00;6.10;;;;;;;13.39;83.37;98104.05;103652;1310;22538;-82
2022/11/08 10:33:31;;;;;;;11.80;6.10;;;;;;;13.48;82.47;98096.52;103703;1304;22550;-81
2022/11/08 10:36:08;;;;;;;11.00;7.10;;;;;;;13.58;82.45;98094.91;104109;1301;21956;-83
2022/11/08 10:38:50;;;;;;;9.70;6.10;;;;;;;13.68;81.55;98092.10;103416;1309;22523;-84
2022/11/08 10:41:41;;;;;;;8.90;6.30;;;;;;;13.76;82.09;98087.64;104019;1309;22479;-85
2022/11/08 10:44:19;;;;;;;9.90;6.50;;;;;;;13.83;82.19;98088.02;103727;1309;22489;-85
2022/11/08 10:47:00;;;;;;;9.80;5.10;;;;;;;13.90;78.73;98084.14;103456;1309;22520;-85
2022/11/08 10:49:30;;;;;;;11.20;5.70;;;;;;;13.95;77.57;98085.46;103351;1310;24288;-86
2022/11/08 10:52:30;;;;;;;7.80;6.30;;;;;;;13.97;79.05;98076.30;103365;1309;24305;-83
2022/11/08 10:55:00;;;;;;;9.40;5.30;;;;;;;14.05;76.09;98078.23;103353;1310;22607;-83
2022/11/08 10:57:31;;;;;;;9.00;6.10;;;;;;;14.10;77.21;98079.07;103215;1310;22610;-83
2022/11/08 11:00:20;;;;;;;8.10;5.70;;;;;;;14.20;76.08;98075.13;103240;1294;25357;-81
2022/11/08 11:03:08;;;;;;;8.40;5.40;;;;;;;14.61;75.53;98064.41;103351;1309;24594;-83
2022/11/08 11:05:41;;;;;;;7.70;5.60;;;;;;;16.21;75.65;98067.08;103364;1309;22607;-82
2022/11/08 11:08:09;;;;;;;20.90;6.00;;;;;;;17.69;72.70;98062.73;103249;1309;22502;-83
2022/11/08 11:10:39;;;;;;;21.50;10.90;;;;;;;18.78;69.05;98058.48;103230;1309;22477;-83
2022/11/08 11:13:23;;;;;;;10.50;5.90;;;;;;;19.39;68.21;98052.25;103248;1305;22870;-84
2022/11/08 11:15:57;;;;;;;8.40;5.60;;;;;;;19.91;67.30;98052.95;103252;1309;22603;-85
2022/11/08 11:18:38;;;;;;;8.50;5.20;;;;;;;20.16;69.95;98051.64;103347;1309;22547;-82
2022/11/08 11:21:11;;;;;;;8.60;4.80;;;;;;;19.96;69.04;98052.22;103281;1310;22792;-82
2022/11/08 11:23:42;;;;;;;12.30;5.30;;;;;;;19.54;70.13;98047.86;103307;1310;22631;-82
2022/11/08 11:26:34;;;;;;;8.10;5.30;;;;;;;19.45;65.45;98046.00;103312;1310;25254;-82
2022/11/08 11:29:08;;;;;;;5.60;3.60;;;;;;;19.84;67.09;98047.80;103265;1310;159262;-84
2022/11/08 11:31:38;;;;;;;20.60;4.60;;;;;;;20.57;60.15;98046.80;103587;1309;22602;-85
2022/11/08 11:34:15;;;;;;;5.50;4.00;;;;;;;21.11;57.54;98047.34;103526;1310;22471;-83
2022/11/08 11:37:12;;;;;;;6.40;3.70;;;;;;;21.43;58.76;98046.10;103356;1309;25341;-83
2022/11/08 11:39:45;;;;;;;8.40;3.70;;;;;;;21.97;55.41;98043.23;103233;1304;22489;-83
2022/11/08 11:42:31;;;;;;;11.50;3.60;;;;;;;22.01;52.70;98038.13;103263;1301;22705;-82
2022/11/08 11:45:49;;;;;;;9.50;5.30;;;;;;;22.26;54.34;98038.95;103309;1309;22503;-82
2022/11/08 11:48:26;;;;;;;9.10;4.40;;;;;;;22.78;56.35;98030.46;103198;1310;24298;-82
2022/11/08 11:50:55;;;;;;;7.60;4.10;;;;;;;23.17;55.93;98030.32;103390;1308;22630;-83